Time;durP1;ratioP1;P1;durP2;ratioP2;P2;SDS_P1;SDS_P2;PMS_P1;PMS_P2;Temp;Humidity;BMP_temperature;BMP_pressure;BME280_temperature;BME280_humidity;BME280_pressure;Samples;Min_cycle;Max_cycle;Signal;HPM_P1;HPM_P2
2022/12/24 00:01:07;;;;;;;21.40;10.53;;;;;;;5.60;100.00;100466.72;4966026;28;20210;-72
2022/12/24 00:03:34;;;;;;;21.70;11.53;;;;;;;5.59;100.00;100467.56;4950792;28;20192;-71
2022/12/24 00:06:04;;;;;;;19.03;10.53;;;;;;;5.57;100.00;100471.69;4951765;28;20251;-73
2022/12/24 00:08:30;;;;;;;20.73;11.27;;;;;;;5.59;100.00;100466.69;4962968;28;20501;-71
2022/12/24 00:10:55;;;;;;;19.07;10.80;;;;;;;5.59;100.00;100475.16;4964533;28;20228;-71
2022/12/24 00:13:21;;;;;;;23.70;11.43;;;;;;;5.60;100.00;100471.81;4952462;28;20255;-72
2022/12/24 00:15:46;;;;;;;22.97;11.67;;;;;;;5.59;100.00;100471.75;4962518;28;20302;-72
2022/12/24 00:18:12;;;;;;;23.57;12.03;;;;;;;5.57;100.00;100473.38;4944777;28;20225;-71
2022/12/24 00:20:37;;;;;;;26.77;12.37;;;;;;;5.59;100.00;100476.84;4967979;28;20196;-71
2022/12/24 00:23:03;;;;;;;22.70;13.10;;;;;;;5.58;100.00;100478.50;4969104;28;20193;-71
2022/12/24 00:25:28;;;;;;;24.50;12.57;;;;;;;5.58;100.00;100473.41;4963050;28;20568;-74
2022/12/24 00:27:54;;;;;;;24.03;13.47;;;;;;;5.59;100.00;100474.28;4961529;28;20217;-71
2022/12/24 00:30:19;;;;;;;26.97;13.40;;;;;;;5.58;100.00;100475.13;4960083;28;20225;-72
2022/12/24 00:32:45;;;;;;;28.10;14.10;;;;;;;5.58;100.00;100477.66;4962333;28;20299;-71
2022/12/24 00:35:10;;;;;;;27.37;14.30;;;;;;;5.56;100.00;100481.78;4964907;28;20994;-73
2022/12/24 00:37:35;;;;;;;27.53;14.83;;;;;;;5.57;100.00;100486.09;4962715;28;20212;-73
2022/12/24 00:40:03;;;;;;;30.73;14.50;;;;;;;5.58;100.00;100482.72;4963527;28;20266;-72
2022/12/24 00:42:28;;;;;;;29.67;15.50;;;;;;;5.57;100.00;100484.41;4961804;28;20188;-72
2022/12/24 00:44:53;;;;;;;27.13;14.33;;;;;;;5.57;100.00;100489.47;4962340;28;20193;-72
2022/12/24 00:47:19;;;;;;;30.87;14.97;;;;;;;5.58;100.00;100490.34;4963499;28;20571;-72
2022/12/24 00:49:44;;;;;;;31.13;14.80;;;;;;;5.56;100.00;100492.81;4960125;28;20613;-72
2022/12/24 00:52:10;;;;;;;31.17;15.37;;;;;;;5.57;100.00;100497.09;4963135;28;20255;-72
2022/12/24 00:54:35;;;;;;;29.20;15.13;;;;;;;5.57;100.00;100494.56;4964090;28;20193;-72
2022/12/24 00:57:00;;;;;;;30.57;14.97;;;;;;;5.56;100.00;100494.50;4963690;28;20744;-72
2022/12/24 00:59:26;;;;;;;30.87;15.53;;;;;;;5.56;100.00;100492.81;4965442;28;20219;-72
2022/12/24 01:01:51;;;;;;;33.07;16.23;;;;;;;5.56;100.00;100490.28;4970143;28;20220;-73
2022/12/24 01:07:01;;;;;;;33.37;15.20;;;;;;;5.55;100.00;100501.25;4962138;28;20571;-72
2022/12/24 01:09:26;;;;;;;32.57;15.73;;;;;;;5.55;100.00;100497.84;4961906;28;20212;-72
2022/12/24 01:11:52;;;;;;;36.70;16.80;;;;;;;5.54;100.00;100504.63;4962756;28;20227;-72
2022/12/24 01:14:17;;;;;;;32.00;15.43;;;;;;;5.54;100.00;100504.63;4967122;28;20204;-72
2022/12/24 01:16:42;;;;;;;32.07;15.57;;;;;;;5.52;100.00;100513.84;4960848;28;20204;-71
2022/12/24 01:19:08;;;;;;;32.57;15.23;;;;;;;5.53;100.00;100512.19;4947086;28;20740;-73
2022/12/24 01:21:33;;;;;;;33.07;15.73;;;;;;;5.51;100.00;100513.78;4964204;28;20232;-73
2022/12/24 01:23:59;;;;;;;33.70;15.97;;;;;;;5.54;100.00;100518.97;4963531;28;20196;-73
2022/12/24 01:26:24;;;;;;;32.97;16.13;;;;;;;5.53;100.00;100504.56;4959250;28;20256;-73
2022/12/24 01:28:50;;;;;;;33.73;16.10;;;;;;;5.51;100.00;100509.59;4961677;28;20263;-72
2022/12/24 01:31:17;;;;;;;31.43;14.97;;;;;;;5.52;100.00;100524.00;4965582;28;20194;-73
2022/12/24 01:33:45;;;;;;;34.73;16.70;;;;;;;5.52;100.00;100521.47;4962819;28;20204;-72
2022/12/24 01:36:11;;;;;;;38.27;16.97;;;;;;;5.53;100.00;100529.97;4963626;28;20225;-73
2022/12/24 01:38:37;;;;;;;35.17;16.93;;;;;;;5.51;100.00;100523.94;4960904;28;20355;-72
2022/12/24 01:43:47;;;;;;;31.97;16.30;;;;;;;5.52;100.00;100515.53;4963348;28;20267;-72
2022/12/24 01:46:21;;;;;;;37.10;16.73;;;;;;;5.51;100.00;100522.28;4960135;28;20287;-72
2022/12/24 01:49:03;;;;;;;35.80;16.20;;;;;;;5.50;100.00;100527.31;4961285;28;20220;-73
2022/12/24 01:51:28;;;;;;;37.00;16.90;;;;;;;5.51;100.00;100529.03;4951761;28;20223;-72
2022/12/24 01:53:59;;;;;;;35.63;16.40;;;;;;;5.53;100.00;100528.25;4966689;28;20654;-72
2022/12/24 01:56:27;;;;;;;41.07;17.03;;;;;;;5.50;100.00;100533.25;4972782;28;20299;-72
2022/12/24 01:58:56;;;;;;;43.07;17.60;;;;;;;5.51;100.00;100534.09;4963105;28;20592;-72
2022/12/24 02:01:22;;;;;;;38.00;16.43;;;;;;;5.52;100.00;100540.94;4965657;28;20279;-72
2022/12/24 02:03:47;;;;;;;36.80;16.73;;;;;;;5.50;100.00;100537.47;4964490;28;20687;-73
2022/12/24 02:06:15;;;;;;;41.93;18.33;;;;;;;5.52;100.00;100538.38;4967783;28;20324;-72
2022/12/24 02:08:41;;;;;;;41.90;18.00;;;;;;;5.50;100.00;100543.41;4963685;28;20311;-72
2022/12/24 02:11:10;;;;;;;39.43;18.07;;;;;;;5.51;100.00;100544.25;4965220;28;20612;-72
2022/12/24 02:13:35;;;;;;;38.43;17.07;;;;;;;5.53;100.00;100551.13;4973270;28;20220;-72
2022/12/24 02:16:16;;;;;;;37.77;17.67;;;;;;;5.54;100.00;100557.06;4966691;28;20200;-71
2022/12/24 02:19:13;;;;;;;41.27;18.30;;;;;;;5.54;100.00;100559.59;4964409;28;20216;-71
2022/12/24 02:22:01;;;;;;;37.20;16.67;;;;;;;5.56;100.00;100563.06;4958465;28;20213;-73
2022/12/24 02:24:48;;;;;;;38.10;18.23;;;;;;;5.55;100.00;100566.41;4965609;28;20223;-72
2022/12/24 02:27:29;;;;;;;36.27;16.37;;;;;;;5.55;100.00;100571.47;4961074;28;20283;-72
2022/12/24 02:30:09;;;;;;;36.30;16.83;;;;;;;5.57;100.00;100564.81;4963897;28;20204;-73
2022/12/24 02:32:55;;;;;;;37.20;17.37;;;;;;;5.56;100.00;100570.66;4962118;28;20213;-73
2022/12/24 02:35:31;;;;;;;31.97;16.17;;;;;;;5.56;100.00;100571.53;4965787;28;20963;-72
2022/12/24 02:38:06;;;;;;;35.93;16.63;;;;;;;5.56;100.00;100568.13;4969351;28;20220;-73
2022/12/24 02:40:41;;;;;;;34.70;17.33;;;;;;;5.55;100.00;100571.47;4968824;28;20781;-73
2022/12/24 02:43:15;;;;;;;32.13;15.83;;;;;;;5.56;100.00;100571.53;4969412;28;20242;-72
2022/12/24 02:45:44;;;;;;;38.53;18.03;;;;;;;5.53;100.00;100579.03;4963650;28;20211;-72
2022/12/24 02:48:13;;;;;;;34.77;15.93;;;;;;;5.54;100.00;100572.31;4947425;28;20241;-73
2022/12/24 02:50:39;;;;;;;37.33;15.63;;;;;;;5.54;100.00;100578.25;4967708;28;20200;-73
2022/12/24 02:53:08;;;;;;;36.00;16.97;;;;;;;5.53;100.00;100579.03;4965977;28;20275;-72
2022/12/24 02:55:48;;;;;;;34.10;15.47;;;;;;;5.54;100.00;100577.38;4970838;28;20196;-72
2022/12/24 02:58:41;;;;;;;36.63;15.40;;;;;;;5.54;100.00;100577.38;4967219;28;20275;-72
2022/12/24 03:01:21;;;;;;;33.63;15.10;;;;;;;5.53;100.00;100575.66;4966355;28;20259;-72
2022/12/24 03:04:18;;;;;;;33.33;14.93;;;;;;;5.53;100.00;100576.50;4949605;28;20210;-71
2022/12/24 03:06:56;;;;;;;31.83;15.30;;;;;;;5.53;100.00;100579.03;4964698;28;20209;-72
2022/12/24 03:09:31;;;;;;;34.43;15.80;;;;;;;5.52;100.00;100576.47;4964592;28;20306;-71
2022/12/24 03:12:11;;;;;;;32.33;14.37;;;;;;;5.50;100.00;100581.50;4961147;28;20220;-71
2022/12/24 03:14:40;;;;;;;34.50;15.30;;;;;;;5.53;100.00;100585.81;4962806;28;20287;-71
2022/12/24 03:17:06;;;;;;;33.70;14.50;;;;;;;5.53;100.00;100585.81;4965282;28;20667;-71
2022/12/24 03:19:33;;;;;;;31.13;13.70;;;;;;;5.52;100.00;100591.72;4963457;28;20592;-72
2022/12/24 03:22:03;;;;;;;32.93;15.33;;;;;;;5.51;100.00;100588.28;4963532;28;20188;-71
2022/12/24 03:24:29;;;;;;;31.70;14.83;;;;;;;5.54;100.00;100590.06;4967854;28;20275;-71
2022/12/24 03:26:55;;;;;;;31.57;14.73;;;;;;;5.54;100.00;100597.69;4966143;28;20913;-72
2022/12/24 03:29:20;;;;;;;35.67;14.93;;;;;;;5.55;100.00;100591.78;4960151;28;20225;-72
2022/12/24 03:31:49;;;;;;;30.90;14.63;;;;;;;5.53;100.00;100594.28;4964350;28;20224;-72
2022/12/24 03:34:15;;;;;;;27.50;13.63;;;;;;;5.51;100.00;100610.28;4966895;28;20200;-73
2022/12/24 03:36:41;;;;;;;28.83;13.73;;;;;;;5.52;100.00;100612.03;4969459;28;20200;-73
2022/12/24 03:39:08;;;;;;;27.73;13.93;;;;;;;5.51;100.00;100611.16;4966894;28;20973;-71
2022/12/24 03:41:34;;;;;;;27.57;13.00;;;;;;;5.52;100.00;100617.94;4966699;28;20653;-73
2022/12/24 03:43:59;;;;;;;27.43;13.23;;;;;;;5.53;100.00;100616.28;4944739;28;20201;-73
2022/12/24 03:46:25;;;;;;;29.63;13.13;;;;;;;5.53;100.00;100617.13;4968907;28;20677;-73
2022/12/24 03:48:50;;;;;;;29.20;13.33;;;;;;;5.50;100.00;100619.56;4963491;28;20216;-72
2022/12/24 03:51:19;;;;;;;30.57;13.93;;;;;;;5.53;100.00;100623.91;4965362;28;20592;-72
2022/12/24 03:53:45;;;;;;;29.40;14.27;;;;;;;5.52;100.00;100619.63;4970098;28;20220;-73
2022/12/24 03:56:10;;;;;;;30.10;13.77;;;;;;;5.53;100.00;100621.34;4965741;28;20211;-72
2022/12/24 03:58:35;;;;;;;27.30;13.70;;;;;;;5.51;100.00;100628.91;4965240;28;20224;-73
2022/12/24 04:01:01;;;;;;;28.30;13.33;;;;;;;5.51;100.00;100630.59;4962913;28;20251;-72
2022/12/24 04:03:26;;;;;;;29.57;14.47;;;;;;;5.51;100.00;100631.47;4967722;28;20200;-72
2022/12/24 04:06:14;;;;;;;30.40;14.50;;;;;;;5.49;100.00;100637.28;4943543;28;20280;-73
2022/12/24 04:08:40;;;;;;;31.73;14.43;;;;;;;5.50;100.00;100634.81;4964359;28;20224;-72
2022/12/24 04:11:08;;;;;;;30.63;14.33;;;;;;;5.50;100.00;100639.00;4964778;28;20208;-73
2022/12/24 04:13:34;;;;;;;29.70;14.60;;;;;;;5.50;100.00;100642.44;4963139;28;20228;-73
2022/12/24 04:16:02;;;;;;;28.50;13.77;;;;;;;5.51;100.00;100648.34;4967736;28;20331;-72
2022/12/24 04:18:28;;;;;;;30.13;13.60;;;;;;;5.51;100.00;100654.31;4969247;28;20220;-72
2022/12/24 04:20:53;;;;;;;30.60;13.97;;;;;;;5.50;100.00;100656.78;4951481;28;20283;-72
2022/12/24 04:23:19;;;;;;;31.50;14.50;;;;;;;5.49;100.00;100655.94;4965295;28;20190;-72
2022/12/24 04:25:45;;;;;;;33.03;14.83;;;;;;;5.50;100.00;100655.13;4961432;28;20666;-72
2022/12/24 04:28:11;;;;;;;29.23;13.73;;;;;;;5.52;100.00;100655.19;4967619;28;20243;-72
2022/12/24 04:30:38;;;;;;;29.17;14.33;;;;;;;5.51;100.00;100658.50;4968086;28;20197;-72
2022/12/24 04:33:03;;;;;;;27.33;13.20;;;;;;;5.52;100.00;100653.50;4961165;28;20217;-72
2022/12/24 04:35:29;;;;;;;27.43;13.50;;;;;;;5.52;100.00;100655.19;4969737;28;20215;-72
2022/12/24 04:37:54;;;;;;;27.97;13.70;;;;;;;5.52;100.00;100662.81;4961047;28;20226;-74
2022/12/24 04:40:20;;;;;;;27.77;14.80;;;;;;;5.49;100.00;100668.63;4963855;28;20574;-73
2022/12/24 04:42:45;;;;;;;28.70;14.77;;;;;;;5.52;100.00;100672.97;4962349;28;20219;-73
2022/12/24 04:45:11;;;;;;;27.30;14.57;;;;;;;5.51;100.00;100671.19;4966611;28;20227;-72
2022/12/24 04:47:36;;;;;;;27.53;14.17;;;;;;;5.50;100.00;100665.28;4969321;28;20206;-72
2022/12/24 04:50:02;;;;;;;26.97;13.23;;;;;;;5.50;100.00;100670.34;4964241;28;20254;-72
2022/12/24 04:52:27;;;;;;;26.07;13.30;;;;;;;5.49;100.00;100671.19;4967637;28;20290;-72
2022/12/24 04:54:53;;;;;;;25.20;12.70;;;;;;;5.48;100.00;100671.13;4965537;28;20661;-72
2022/12/24 04:57:18;;;;;;;23.43;11.97;;;;;;;5.46;100.00;100663.44;4966819;28;20283;-72
2022/12/24 04:59:44;;;;;;;27.17;13.73;;;;;;;5.45;100.00;100663.38;4966082;28;20216;-72
2022/12/24 05:02:09;;;;;;;24.87;12.30;;;;;;;5.43;100.00;100663.31;4950447;28;20571;-72
2022/12/24 05:04:35;;;;;;;23.20;12.27;;;;;;;5.42;100.00;100665.78;4946296;28;20197;-72
2022/12/24 05:07:00;;;;;;;25.57;13.00;;;;;;;5.40;100.00;100668.31;4961764;28;20196;-73
2022/12/24 05:09:25;;;;;;;24.57;11.97;;;;;;;5.41;100.00;100666.59;4964569;28;20570;-73
2022/12/24 05:11:51;;;;;;;25.93;12.87;;;;;;;5.42;100.00;100666.66;4962668;28;20339;-71
2022/12/24 05:14:16;;;;;;;22.77;11.83;;;;;;;5.39;100.00;100664.00;4968072;28;20254;-73
2022/12/24 05:16:42;;;;;;;21.97;11.40;;;;;;;5.39;100.00;100669.09;4960878;28;20749;-73
2022/12/24 05:19:08;;;;;;;23.90;11.73;;;;;;;5.41;100.00;100670.03;4959577;28;20217;-72
2022/12/24 05:21:34;;;;;;;23.67;11.43;;;;;;;5.40;100.00;100669.97;4962648;28;20232;-72
2022/12/24 05:26:56;;;;;;;22.97;11.53;;;;;;;5.40;100.00;100672.50;4964161;28;20203;-72
2022/12/24 05:29:22;;;;;;;21.93;10.63;;;;;;;5.40;100.00;100675.03;4954325;28;20226;-72
2022/12/24 05:31:48;;;;;;;20.27;10.63;;;;;;;5.37;100.00;100677.44;4967274;28;20216;-72
2022/12/24 05:34:15;;;;;;;18.20;9.83;;;;;;;5.38;100.00;100677.50;4964540;28;20191;-74
2022/12/24 05:36:41;;;;;;;22.13;10.70;;;;;;;5.37;100.00;100687.59;4963944;28;20207;-73
2022/12/24 05:39:06;;;;;;;21.23;9.83;;;;;;;5.37;100.00;100693.56;4970636;28;20212;-73
2022/12/24 05:41:32;;;;;;;22.13;10.27;;;;;;;5.36;100.00;100694.38;4966614;28;20578;-73
2022/12/24 05:43:57;;;;;;;21.07;9.93;;;;;;;5.37;100.00;100696.09;4965201;28;20251;-72
2022/12/24 05:46:23;;;;;;;19.43;9.00;;;;;;;5.34;100.00;100692.59;4966458;28;20236;-72
2022/12/24 05:48:50;;;;;;;19.77;9.90;;;;;;;5.35;100.00;100696.84;4963443;28;20225;-72
2022/12/24 05:51:18;;;;;;;18.70;9.67;;;;;;;5.33;100.00;100695.91;4966609;28;20670;-72
2022/12/24 05:53:45;;;;;;;19.90;9.77;;;;;;;5.33;100.00;100699.31;4966204;28;20225;-72
2022/12/24 05:56:13;;;;;;;20.47;9.70;;;;;;;5.34;100.00;100703.59;4955228;28;20290;-72
2022/12/24 05:58:40;;;;;;;17.73;9.07;;;;;;;5.35;100.00;100701.94;4961745;28;20223;-72
2022/12/24 06:01:07;;;;;;;16.47;8.87;;;;;;;5.35;100.00;100704.47;4962728;28;20275;-72
2022/12/24 06:03:32;;;;;;;17.77;8.90;;;;;;;5.35;100.00;100707.00;4969245;28;20196;-73
2022/12/24 06:06:06;;;;;;;17.20;8.80;;;;;;;5.34;100.00;100706.13;4962688;28;20219;-72
2022/12/24 06:08:32;;;;;;;16.87;8.47;;;;;;;5.34;100.00;100712.91;4959085;28;20224;-72
2022/12/24 06:11:00;;;;;;;14.77;8.00;;;;;;;5.35;100.00;100717.16;4965330;28;20204;-72
2022/12/24 06:13:27;;;;;;;14.83;7.57;;;;;;;5.36;100.00;100718.88;4968736;28;20232;-72
2022/12/24 06:16:00;;;;;;;14.67;8.60;;;;;;;5.35;100.00;100719.69;4959836;28;20201;-73
2022/12/24 06:18:25;;;;;;;15.07;8.43;;;;;;;5.36;100.00;100713.81;4964175;28;20224;-74
2022/12/24 06:20:52;;;;;;;19.47;9.00;;;;;;;5.35;100.00;100718.00;4961301;28;20260;-72
2022/12/24 06:23:18;;;;;;;14.93;7.33;;;;;;;5.37;100.00;100731.63;4962877;28;20201;-72
2022/12/24 06:25:44;;;;;;;15.43;8.17;;;;;;;5.35;100.00;100730.69;4960464;28;20197;-72
2022/12/24 06:28:10;;;;;;;16.40;8.73;;;;;;;5.36;100.00;100721.41;4966079;28;20221;-72
2022/12/24 06:30:35;;;;;;;14.37;8.57;;;;;;;5.34;100.00;100725.59;4963804;28;20255;-72
2022/12/24 06:33:01;;;;;;;14.77;7.60;;;;;;;5.34;100.00;100713.75;4965153;28;20307;-72
2022/12/24 06:35:26;;;;;;;17.33;8.67;;;;;;;5.33;100.00;100717.09;4965786;28;20287;-71
2022/12/24 06:37:51;;;;;;;15.43;8.40;;;;;;;5.32;100.00;100717.91;4965310;28;20223;-72
2022/12/24 06:40:17;;;;;;;16.00;8.10;;;;;;;5.33;100.00;100729.78;4965212;28;20285;-71
2022/12/24 06:42:42;;;;;;;15.87;8.70;;;;;;;5.32;100.00;100728.06;4961983;28;20197;-74
2022/12/24 06:45:08;;;;;;;16.20;8.47;;;;;;;5.32;100.00;100734.78;4965711;28;20192;-74
2022/12/24 06:47:33;;;;;;;16.20;8.10;;;;;;;5.32;100.00;100732.25;4961896;28;20280;-73
2022/12/24 06:49:59;;;;;;;15.70;8.40;;;;;;;5.31;100.00;100736.50;4963314;28;20197;-72
2022/12/24 06:52:24;;;;;;;14.30;8.50;;;;;;;5.30;100.00;100737.28;4972679;28;20220;-72
2022/12/24 06:54:50;;;;;;;14.60;8.53;;;;;;;5.33;100.00;100744.13;4969476;28;20204;-72
2022/12/24 06:57:15;;;;;;;15.00;8.03;;;;;;;5.30;100.00;100744.88;4968390;28;20228;-72
2022/12/24 06:59:41;;;;;;;17.37;8.93;;;;;;;5.30;100.00;100747.41;4966166;28;20232;-72
2022/12/24 07:02:08;;;;;;;13.77;8.33;;;;;;;5.32;100.00;100748.38;4964465;28;20193;-72
2022/12/24 07:04:34;;;;;;;14.60;8.37;;;;;;;5.32;100.00;100755.97;4964312;28;20200;-73
2022/12/24 07:06:59;;;;;;;13.30;8.00;;;;;;;5.29;100.00;100755.84;4960706;28;20694;-73
2022/12/24 07:09:25;;;;;;;14.67;7.77;;;;;;;5.30;100.00;100759.28;4963531;28;20212;-73
2022/12/24 07:11:50;;;;;;;14.17;7.80;;;;;;;5.30;100.00;100760.13;4966739;28;20651;-73
2022/12/24 07:14:15;;;;;;;15.17;7.90;;;;;;;5.29;100.00;100763.47;4966880;28;20202;-72
2022/12/24 07:16:41;;;;;;;15.80;8.00;;;;;;;5.29;100.00;100765.16;4961792;28;20235;-72
2022/12/24 07:19:06;;;;;;;13.77;7.67;;;;;;;5.26;100.00;100768.44;4964439;28;20303;-72
2022/12/24 07:21:32;;;;;;;13.67;8.00;;;;;;;5.28;100.00;100771.91;4962942;28;20204;-72
2022/12/24 07:23:57;;;;;;;13.70;7.83;;;;;;;5.30;100.00;100775.34;4961257;28;20199;-72
2022/12/24 07:26:23;;;;;;;13.13;7.43;;;;;;;5.31;100.00;100774.56;4963537;28;20200;-72
2022/12/24 07:28:48;;;;;;;12.67;7.53;;;;;;;5.31;100.00;100778.75;4962286;28;20307;-72
2022/12/24 07:31:14;;;;;;;13.57;7.87;;;;;;;5.28;100.00;100789.66;4964861;28;20235;-72
2022/12/24 07:33:39;;;;;;;17.13;8.23;;;;;;;5.28;100.00;100783.72;4962124;28;20216;-72
2022/12/24 07:36:07;;;;;;;13.57;7.60;;;;;;;5.30;100.00;100795.66;4964087;28;20308;-73
2022/12/24 07:38:34;;;;;;;14.73;7.87;;;;;;;5.30;100.00;100800.72;4965254;28;20232;-72
2022/12/24 07:40:59;;;;;;;12.90;7.47;;;;;;;5.32;100.00;100798.25;4946993;28;20319;-70
2022/12/24 07:43:26;;;;;;;14.33;7.90;;;;;;;5.31;100.00;100797.41;4960323;28;20853;-72
2022/12/24 07:45:57;;;;;;;11.97;6.93;;;;;;;5.31;100.00;100804.16;4962693;28;20209;-72
2022/12/24 07:48:25;;;;;;;14.03;8.23;;;;;;;5.29;100.00;100808.31;4968331;28;20567;-72
2022/12/24 07:50:51;;;;;;;14.73;8.30;;;;;;;5.30;100.00;100818.50;4965509;28;20223;-72
2022/12/24 07:53:17;;;;;;;16.03;8.60;;;;;;;5.31;100.00;100816.84;4970704;28;20598;-72
2022/12/24 07:55:43;;;;;;;13.00;8.27;;;;;;;5.29;100.00;100819.31;4965812;28;20208;-72
2022/12/24 07:58:09;;;;;;;14.03;7.53;;;;;;;5.30;100.00;100822.72;4960814;28;20216;-73
2022/12/24 08:00:35;;;;;;;15.77;7.77;;;;;;;5.31;100.00;100830.41;4962350;28;20547;-73
2022/12/24 08:03:00;;;;;;;13.07;8.00;;;;;;;5.32;100.00;100836.31;4959280;28;20667;-73
2022/12/24 08:05:26;;;;;;;12.83;7.63;;;;;;;5.30;100.00;100827.81;4963294;28;20228;-72
2022/12/24 08:07:52;;;;;;;14.00;8.27;;;;;;;5.32;100.00;100832.13;4962094;28;21129;-72
2022/12/24 08:10:18;;;;;;;13.53;8.37;;;;;;;5.34;100.00;100837.28;4965283;28;20202;-72
2022/12/24 08:12:44;;;;;;;15.43;8.43;;;;;;;5.33;100.00;100846.53;4961351;28;20246;-72
2022/12/24 08:15:10;;;;;;;13.80;8.03;;;;;;;5.33;100.00;100846.53;4963635;28;20531;-71
2022/12/24 08:17:36;;;;;;;13.43;8.50;;;;;;;5.34;100.00;100847.44;4960040;28;20192;-72
2022/12/24 08:20:03;;;;;;;15.33;9.00;;;;;;;5.36;100.00;100849.22;4960162;28;20547;-72
2022/12/24 08:22:28;;;;;;;14.97;8.83;;;;;;;5.37;100.00;100853.47;4961315;28;20185;-71
2022/12/24 08:24:54;;;;;;;16.60;8.93;;;;;;;5.36;100.00;100849.22;4964275;28;20699;-72
2022/12/24 08:27:19;;;;;;;14.63;8.33;;;;;;;5.35;100.00;100857.63;4964513;28;20200;-72
2022/12/24 08:29:45;;;;;;;16.20;9.70;;;;;;;5.34;100.00;100858.44;4961173;28;20275;-74
2022/12/24 08:32:10;;;;;;;15.40;9.07;;;;;;;5.36;100.00;100866.09;4962509;28;20311;-72
2022/12/24 08:34:35;;;;;;;14.10;8.40;;;;;;;5.37;100.00;100866.19;4959392;28;20615;-73
2022/12/24 08:37:01;;;;;;;16.13;8.70;;;;;;;5.42;100.00;100863.81;4961996;28;20728;-74
2022/12/24 08:39:26;;;;;;;14.47;8.27;;;;;;;5.42;100.00;100864.69;4969579;28;20315;-72
2022/12/24 08:41:52;;;;;;;12.87;7.70;;;;;;;5.43;100.00;100866.41;4964472;28;20213;-72
2022/12/24 08:44:17;;;;;;;13.77;8.20;;;;;;;5.42;100.00;100872.31;4953043;28;20692;-72
2022/12/24 08:46:42;;;;;;;16.10;8.00;;;;;;;5.33;100.00;100866.84;4966994;28;20744;-72
2022/12/24 08:49:08;;;;;;;11.43;7.00;;;;;;;5.36;100.00;100868.66;4959097;28;20221;-72
2022/12/24 08:51:33;;;;;;;11.57;7.23;;;;;;;5.41;100.00;100873.13;4967102;28;20247;-72
2022/12/24 08:53:59;;;;;;;9.20;5.73;;;;;;;5.43;100.00;100868.94;4959035;28;20299;-72
2022/12/24 08:56:24;;;;;;;10.67;6.23;;;;;;;5.48;100.00;100874.22;4966731;28;20287;-72
2022/12/24 08:58:50;;;;;;;9.93;6.90;;;;;;;5.50;100.00;100881.09;4959156;28;20805;-72
2022/12/24 09:01:18;;;;;;;10.60;6.20;;;;;;;5.49;100.00;100891.19;4966144;28;20323;-72
2022/12/24 09:03:44;;;;;;;9.87;6.23;;;;;;;5.48;100.00;100895.38;4957549;28;20208;-72
2022/12/24 09:06:10;;;;;;;9.30;6.33;;;;;;;5.51;100.00;100908.22;4946387;28;20193;-71
2022/12/24 09:08:35;;;;;;;9.87;6.10;;;;;;;5.53;100.00;100901.50;4958803;28;20226;-72
2022/12/24 09:11:06;;;;;;;10.27;6.10;;;;;;;5.65;100.00;100901.13;4961222;28;20189;-72
2022/12/24 09:13:32;;;;;;;9.90;6.33;;;;;;;5.70;100.00;100910.69;4961130;28;20220;-72
2022/12/24 09:15:58;;;;;;;9.27;6.37;;;;;;;5.76;100.00;100908.38;4967176;28;20275;-72
2022/12/24 09:18:24;;;;;;;7.67;5.30;;;;;;;5.76;100.00;100916.00;4959777;28;20244;-72
2022/12/24 09:20:49;;;;;;;9.63;6.77;;;;;;;5.73;100.00;100915.88;4960653;28;20606;-72
2022/12/24 09:23:15;;;;;;;9.33;6.30;;;;;;;5.72;100.00;100918.38;4961913;28;20251;-71
2022/12/24 09:25:42;;;;;;;8.30;5.70;;;;;;;5.75;100.00;100921.88;4962409;28;20212;-72
2022/12/24 09:28:07;;;;;;;9.90;5.93;;;;;;;5.73;100.00;100920.97;4948319;28;20228;-72
2022/12/24 09:30:33;;;;;;;12.83;7.20;;;;;;;5.77;100.00;100924.50;4962168;28;20561;-74
2022/12/24 09:32:58;;;;;;;8.63;6.20;;;;;;;5.76;100.00;100931.22;4963811;28;20220;-71
2022/12/24 09:35:24;;;;;;;9.77;6.20;;;;;;;5.74;100.00;100945.56;4965388;28;20757;-72
2022/12/24 09:38:01;;;;;;;10.40;6.60;;;;;;;5.74;100.00;100944.69;4963682;28;20581;-74
2022/12/24 09:40:38;;;;;;;9.90;6.67;;;;;;;5.74;100.00;100943.03;4967801;28;20203;-71
2022/12/24 09:43:13;;;;;;;8.00;5.50;;;;;;;5.75;100.00;100948.97;4963872;28;20589;-73
2022/12/24 09:45:43;;;;;;;9.97;6.80;;;;;;;5.71;100.00;100963.22;4961351;28;20204;-73
2022/12/24 09:48:14;;;;;;;10.47;6.50;;;;;;;5.69;100.00;100963.94;4963853;28;20216;-73
2022/12/24 09:50:48;;;;;;;8.80;5.57;;;;;;;5.69;100.00;100959.75;4968325;28;20219;-73
2022/12/24 09:53:52;;;;;;;8.73;6.07;;;;;;;5.68;100.00;100968.19;4965644;28;20900;-73
2022/12/24 09:56:21;;;;;;;10.53;6.77;;;;;;;5.80;100.00;100960.19;4963317;28;20915;-73
2022/12/24 09:58:56;;;;;;;9.27;6.23;;;;;;;5.83;100.00;100951.03;4957769;28;20229;-73
2022/12/24 10:01:21;;;;;;;9.13;6.10;;;;;;;5.89;100.00;100950.44;4961358;28;20204;-73
2022/12/24 10:03:47;;;;;;;8.30;5.87;;;;;;;5.86;100.00;100948.63;4959579;28;20248;-73
2022/12/24 10:06:23;;;;;;;9.93;5.67;;;;;;;5.75;100.00;100961.69;4961772;28;20631;-72
2022/12/24 10:09:07;;;;;;;8.97;5.83;;;;;;;5.75;100.00;100972.69;4958689;28;20275;-73
2022/12/24 10:11:48;;;;;;;8.63;5.23;;;;;;;5.83;100.00;100967.94;4964153;28;20208;-73
2022/12/24 10:14:20;;;;;;;8.57;6.13;;;;;;;5.85;100.00;100976.50;4969255;28;20212;-73
2022/12/24 10:17:20;;;;;;;9.67;6.80;;;;;;;5.85;100.00;100984.97;4967838;28;20196;-73
2022/12/24 10:20:13;;;;;;;8.97;6.47;;;;;;;5.89;100.00;100986.84;4964953;28;20208;-74
2022/12/24 10:22:57;;;;;;;8.00;5.70;;;;;;;5.89;100.00;100983.47;4965128;28;20291;-73
2022/12/24 10:25:29;;;;;;;9.97;5.67;;;;;;;5.93;100.00;100987.81;4967967;28;20197;-73
2022/12/24 10:27:59;;;;;;;8.77;6.13;;;;;;;5.89;100.00;100980.91;4963646;28;20213;-73
2022/12/24 10:30:24;;;;;;;9.77;6.60;;;;;;;5.86;100.00;100990.94;4967101;28;20204;-73
2022/12/24 10:32:52;;;;;;;8.43;6.07;;;;;;;5.82;100.00;101002.66;4967922;28;20227;-73
2022/12/24 10:35:25;;;;;;;8.40;6.00;;;;;;;5.84;100.00;100997.66;4967147;28;20197;-72
2022/12/24 10:37:56;;;;;;;12.03;8.33;;;;;;;5.82;100.00;101002.66;4966953;28;20239;-73
2022/12/24 10:40:41;;;;;;;12.27;7.37;;;;;;;5.86;100.00;101008.72;4965138;28;20266;-72
2022/12/24 10:43:21;;;;;;;10.70;7.53;;;;;;;5.86;100.00;101013.81;4965134;28;20208;-72
2022/12/24 10:46:09;;;;;;;13.17;9.77;;;;;;;5.82;100.00;101012.81;4962290;28;20211;-72
2022/12/24 10:48:41;;;;;;;11.63;8.17;;;;;;;5.77;100.00;101015.94;4958261;28;20598;-72
2022/12/24 10:51:20;;;;;;;11.03;7.43;;;;;;;5.74;100.00;101023.44;4965755;28;20200;-72
2022/12/24 10:53:50;;;;;;;10.33;7.30;;;;;;;5.77;100.00;101019.38;4962255;28;20225;-71
2022/12/24 10:56:17;;;;;;;11.60;8.33;;;;;;;5.72;100.00;101013.22;4963267;28;20211;-71
2022/12/24 10:58:52;;;;;;;14.10;10.13;;;;;;;5.77;100.00;101015.94;4961792;28;20227;-72
2022/12/24 11:01:18;;;;;;;12.00;9.07;;;;;;;5.76;100.00;101015.06;4957773;28;20216;-72
2022/12/24 11:03:44;;;;;;;13.70;9.77;;;;;;;5.76;100.00;101015.06;4960222;28;20612;-72
2022/12/24 11:06:17;;;;;;;12.43;8.80;;;;;;;5.83;100.00;101014.56;4963205;28;20251;-73
2022/12/24 11:08:44;;;;;;;12.63;8.20;;;;;;;5.87;100.00;101008.78;4967452;28;20277;-72
2022/12/24 11:11:16;;;;;;;11.73;8.13;;;;;;;5.88;100.00;101009.63;4965150;28;20204;-74
2022/12/24 11:14:00;;;;;;;18.90;13.87;;;;;;;5.89;100.00;101011.41;4966830;28;20250;-73
2022/12/24 11:16:29;;;;;;;16.03;11.97;;;;;;;5.93;100.00;101019.19;4962054;28;20196;-72
2022/12/24 11:19:00;;;;;;;18.07;11.17;;;;;;;5.94;100.00;101020.06;4962854;28;20229;-73
2022/12/24 11:21:30;;;;;;;17.07;11.10;;;;;;;5.89;100.00;101019.03;4969435;28;20204;-73
2022/12/24 11:24:07;;;;;;;23.17;13.03;;;;;;;5.87;100.00;101026.59;4960633;28;20661;-73
2022/12/24 11:26:33;;;;;;;16.90;10.53;;;;;;;5.92;100.00;101029.28;4965959;28;20207;-73
2022/12/24 11:29:10;;;;;;;12.73;8.37;;;;;;;5.95;100.00;101030.28;4965308;28;20208;-73